createdAt,value
2019-05-23T00:04:36.186Z,17.54
2019-05-23T00:09:43.839Z,16.08
2019-05-23T00:14:51.434Z,17.14
2019-05-23T00:19:59.093Z,19.11
2019-05-23T00:25:06.678Z,18.14
2019-05-23T00:30:14.340Z,18.00
2019-05-23T00:35:21.948Z,18.69
2019-05-23T00:40:29.563Z,18.13
2019-05-23T00:45:37.154Z,16.10
2019-05-23T00:50:44.771Z,15.37
2019-05-23T00:55:52.385Z,14.60
2019-05-23T01:01:00.030Z,16.69
2019-05-23T01:06:07.618Z,15.24
2019-05-23T01:11:15.321Z,13.78
2019-05-23T01:16:22.921Z,14.74
2019-05-23T01:21:30.600Z,15.01
2019-05-23T01:26:38.196Z,15.22
2019-05-23T01:31:45.865Z,14.62
2019-05-23T01:36:53.452Z,14.68
2019-05-23T01:42:01.255Z,15.93
2019-05-23T01:47:08.834Z,16.19
2019-05-23T01:52:16.504Z,16.70
2019-05-23T01:57:24.099Z,17.29
2019-05-23T02:02:31.774Z,18.65
2019-05-23T02:07:39.343Z,19.92
2019-05-23T02:12:47.040Z,20.67
2019-05-23T02:17:54.648Z,22.26
2019-05-23T02:23:02.286Z,22.63
2019-05-23T02:28:09.882Z,22.42
2019-05-23T02:33:17.521Z,22.18
2019-05-23T02:38:25.083Z,22.40
2019-05-23T02:43:32.779Z,22.90
2019-05-23T02:48:40.383Z,22.25
2019-05-23T02:53:48.028Z,20.05
2019-05-23T02:58:55.658Z,19.45
2019-05-23T03:04:03.332Z,20.20
2019-05-23T03:09:10.933Z,22.06
2019-05-23T03:14:18.598Z,21.94
2019-05-23T03:19:26.196Z,21.34
2019-05-23T03:24:33.899Z,22.32
2019-05-23T03:29:41.502Z,23.16
2019-05-23T03:34:49.155Z,23.86
2019-05-23T03:39:56.760Z,23.74
2019-05-23T03:45:04.372Z,23.99
2019-05-23T03:50:11.952Z,22.97
2019-05-23T03:55:19.603Z,21.83
2019-05-23T04:00:27.211Z,21.67
2019-05-23T04:05:35.039Z,20.38
2019-05-23T04:10:42.646Z,19.81
2019-05-23T04:15:50.275Z,20.41
2019-05-23T04:20:57.857Z,18.64
2019-05-23T04:26:05.466Z,18.75
2019-05-23T04:31:13.488Z,19.35
2019-05-23T04:36:20.229Z,21.16
2019-05-23T04:41:27.829Z,19.47
2019-05-23T04:46:35.480Z,21.01
2019-05-23T04:51:43.091Z,24.30
2019-05-23T04:56:50.721Z,22.49
2019-05-23T05:01:58.318Z,25.13
2019-05-23T05:07:05.947Z,23.53
2019-05-23T05:12:13.544Z,26.12
2019-05-23T05:17:21.185Z,25.49
2019-05-23T05:22:28.786Z,25.25
2019-05-23T05:27:36.454Z,25.94
2019-05-23T05:32:45.577Z,25.11
2019-05-23T05:37:51.219Z,26.58
2019-05-23T05:42:58.818Z,27.56
2019-05-23T05:48:06.475Z,29.00
2019-05-23T05:53:14.107Z,27.24
2019-05-23T05:58:21.747Z,29.85
2019-05-23T06:03:29.330Z,29.44
2019-05-23T06:08:37.045Z,27.03
2019-05-23T06:13:44.598Z,27.59
2019-05-23T06:18:52.230Z,27.78
2019-05-23T06:23:59.820Z,27.96
2019-05-23T06:29:07.581Z,27.05
2019-05-23T06:34:15.167Z,26.86
2019-05-23T06:39:22.831Z,27.79
2019-05-23T06:44:30.421Z,28.45
2019-05-23T06:49:38.045Z,27.10
2019-05-23T06:54:45.650Z,27.75
2019-05-23T06:59:53.378Z,28.43
2019-05-23T07:05:00.974Z,27.77
2019-05-23T07:10:08.883Z,26.46
2019-05-23T07:15:15.779Z,26.93
2019-05-23T07:20:23.507Z,27.48
2019-05-23T07:25:31.069Z,25.74
2019-05-23T07:30:38.843Z,25.37
2019-05-23T07:35:46.431Z,26.13
2019-05-23T07:40:54.106Z,20.87
2019-05-23T07:46:01.695Z,21.01
2019-05-23T07:51:09.363Z,23.67
2019-05-23T07:56:16.919Z,20.22
2019-05-23T08:01:24.575Z,19.34
2019-05-23T08:06:32.165Z,18.35
2019-05-23T08:11:39.829Z,19.35
2019-05-23T08:16:47.423Z,22.49
2019-05-23T08:21:55.080Z,24.64
2019-05-23T08:27:02.642Z,21.50
2019-05-23T08:32:10.155Z,20.73
2019-05-23T08:37:17.769Z,21.21
2019-05-23T08:42:25.448Z,20.62
2019-05-23T08:47:33.059Z,18.71
2019-05-23T08:52:40.691Z,19.73
2019-05-23T08:57:48.318Z,17.52
2019-05-23T09:02:58.562Z,17.11
2019-05-23T09:08:03.079Z,15.65
2019-05-23T09:13:10.740Z,17.39
2019-05-23T09:18:18.326Z,17.06
2019-05-23T09:23:25.998Z,16.23
2019-05-23T09:28:33.569Z,15.27
2019-05-23T09:33:41.251Z,15.96
2019-05-23T09:38:48.831Z,15.70
2019-05-23T09:43:56.474Z,17.22
2019-05-23T09:49:04.080Z,15.59
2019-05-23T09:54:11.762Z,18.00
2019-05-23T09:59:19.359Z,15.20
2019-05-23T10:04:27.190Z,14.60
2019-05-23T10:09:34.773Z,16.18
2019-05-23T10:14:42.441Z,14.17
2019-05-23T10:19:50.042Z,15.55
2019-05-23T10:24:57.742Z,14.90
2019-05-23T10:30:05.349Z,15.61
2019-05-23T10:35:12.995Z,16.09
2019-05-23T10:40:20.575Z,14.71
2019-05-23T10:45:28.240Z,14.03
2019-05-23T10:50:44.660Z,14.29
2019-05-23T10:55:43.015Z,14.90
2019-05-23T11:00:50.625Z,14.50
2019-05-23T11:05:58.224Z,14.70
2019-05-23T11:11:05.814Z,13.02
2019-05-23T11:16:13.458Z,15.67
2019-05-23T11:21:21.100Z,12.79
2019-05-23T11:26:28.704Z,15.26
2019-05-23T11:31:36.288Z,12.41
2019-05-23T11:36:43.916Z,12.30
2019-05-23T11:41:51.504Z,12.21
2019-05-23T11:46:59.171Z,10.74
2019-05-23T11:52:06.768Z,14.05
2019-05-23T11:57:14.408Z,14.51
2019-05-23T12:02:22.027Z,13.22
2019-05-23T12:07:29.691Z,12.11
2019-05-23T12:12:37.303Z,13.76
2019-05-23T12:17:44.967Z,12.26
2019-05-23T12:22:52.635Z,12.21
2019-05-23T12:28:00.229Z,12.25
2019-05-23T12:33:07.832Z,11.03
2019-05-23T12:38:15.487Z,11.73
2019-05-23T12:43:23.089Z,14.75
2019-05-23T12:48:30.717Z,11.41
2019-05-23T12:53:38.313Z,16.53
2019-05-23T12:58:45.911Z,11.97
2019-05-23T13:03:53.506Z,11.49
2019-05-23T13:09:01.143Z,13.55
2019-05-23T13:14:08.774Z,10.91
2019-05-23T13:19:16.615Z,11.82
2019-05-23T13:24:24.094Z,10.34
2019-05-23T13:29:31.789Z,9.32
2019-05-23T13:34:39.377Z,8.60
2019-05-23T13:39:47.146Z,8.11
2019-05-23T13:44:54.750Z,7.02
2019-05-23T13:50:02.457Z,6.95
2019-05-23T13:55:10.065Z,7.20
2019-05-23T14:00:17.743Z,7.87
2019-05-23T14:05:25.364Z,6.39
2019-05-23T14:10:32.992Z,6.37
2019-05-23T14:15:40.609Z,5.67
2019-05-23T14:20:48.299Z,6.88
2019-05-23T14:25:55.902Z,7.70
2019-05-23T14:31:03.721Z,8.28
2019-05-23T14:36:11.296Z,6.78
2019-05-23T14:41:18.974Z,6.39
2019-05-23T14:46:26.575Z,6.42
2019-05-23T14:51:34.246Z,8.50
2019-05-23T14:56:41.841Z,7.32
2019-05-23T15:01:49.582Z,6.09
2019-05-23T15:06:57.199Z,7.46
2019-05-23T15:12:04.835Z,7.24
2019-05-23T15:17:12.445Z,5.66
2019-05-23T15:22:20.124Z,6.62
2019-05-23T15:27:27.699Z,6.20
2019-05-23T15:32:35.325Z,5.27
2019-05-23T15:37:42.968Z,6.93
2019-05-23T15:42:50.623Z,6.10
2019-05-23T15:47:58.224Z,6.01
2019-05-23T15:53:05.874Z,4.97
2019-05-23T15:58:13.485Z,5.44
2019-05-23T16:03:21.256Z,5.61
2019-05-23T16:08:28.855Z,7.17
2019-05-23T16:13:36.511Z,5.29
2019-05-23T16:18:44.107Z,6.12
2019-05-23T16:23:51.741Z,6.27
2019-05-23T16:28:59.354Z,6.02
2019-05-23T16:34:07.239Z,5.99
2019-05-23T16:39:14.208Z,5.40
2019-05-23T16:44:21.933Z,7.04
2019-05-23T16:49:29.533Z,5.31
2019-05-23T16:54:37.210Z,7.05
2019-05-23T16:59:44.787Z,7.64
2019-05-23T17:05:08.594Z,4.95
2019-05-23T17:10:08.544Z,6.27
2019-05-23T17:15:06.738Z,7.40
2019-05-23T17:20:19.567Z,6.26
2019-05-23T17:25:21.590Z,6.07
2019-05-23T17:30:29.183Z,6.42
2019-05-23T17:35:36.906Z,7.31
2019-05-23T17:40:44.508Z,4.95
2019-05-23T17:45:52.151Z,5.58
2019-05-23T17:50:59.795Z,6.40
2019-05-23T17:56:07.425Z,6.42
2019-05-23T18:01:15.007Z,6.32
2019-05-23T18:06:22.702Z,6.63
2019-05-23T18:11:30.392Z,8.57
2019-05-23T18:16:38.117Z,8.71
2019-05-23T18:21:45.731Z,8.20
2019-05-23T18:26:53.414Z,8.15
2019-05-23T18:32:01.010Z,6.01
2019-05-23T18:37:08.676Z,6.48
2019-05-23T18:42:16.363Z,6.98
2019-05-23T18:47:24.075Z,7.13
2019-05-23T18:52:31.673Z,8.03
2019-05-23T18:57:39.331Z,7.57
2019-05-23T19:02:46.948Z,8.99
2019-05-23T19:07:54.673Z,7.26
2019-05-23T19:13:02.286Z,6.09
2019-05-23T19:18:09.956Z,9.76
2019-05-23T19:23:17.571Z,8.60
2019-05-23T19:28:25.267Z,9.54
2019-05-23T19:33:32.865Z,7.71
2019-05-23T19:38:40.625Z,8.75
2019-05-23T19:43:48.404Z,7.24
2019-05-23T19:48:56.012Z,6.90
2019-05-23T19:54:03.626Z,8.78
2019-05-23T19:59:11.266Z,7.18
2019-05-23T20:04:18.887Z,9.22
2019-05-23T20:09:26.503Z,6.19
2019-05-23T20:14:34.103Z,6.99
2019-05-23T20:19:41.794Z,6.86
2019-05-23T20:24:49.412Z,7.32
2019-05-23T20:29:57.096Z,5.97
2019-05-23T20:35:04.719Z,6.27
2019-05-23T20:40:12.512Z,5.82
2019-05-23T20:45:20.086Z,6.85
2019-05-23T20:50:27.989Z,5.85
2019-05-23T20:55:35.638Z,7.73
2019-05-23T21:00:43.255Z,7.18
2019-05-23T21:05:50.865Z,5.85
2019-05-23T21:10:58.505Z,7.52
2019-05-23T21:16:06.157Z,6.73
2019-05-23T21:21:13.799Z,5.92
2019-05-23T21:26:21.424Z,7.88
2019-05-23T21:31:29.261Z,8.26
2019-05-23T21:36:36.877Z,8.01
2019-05-23T21:41:44.576Z,6.97
2019-05-23T21:46:52.113Z,8.98
2019-05-23T21:52:00.042Z,7.14
2019-05-23T21:57:07.633Z,8.73
2019-05-23T22:02:15.317Z,8.58
2019-05-23T22:07:22.908Z,7.70
2019-05-23T22:12:30.589Z,7.39
2019-05-23T22:17:38.179Z,8.72
2019-05-23T22:22:45.819Z,9.31
2019-05-23T22:27:53.426Z,9.09
2019-05-23T22:33:01.196Z,8.51
2019-05-23T22:38:08.810Z,9.80
2019-05-23T22:43:21.188Z,9.84
2019-05-23T22:48:23.547Z,7.68
2019-05-23T22:53:31.225Z,7.37
2019-05-23T22:58:38.807Z,8.61
2019-05-23T23:03:46.431Z,6.58
2019-05-23T23:08:54.046Z,6.05
2019-05-23T23:14:01.688Z,7.92
2019-05-23T23:19:09.363Z,7.50
2019-05-23T23:24:16.937Z,7.88
2019-05-23T23:29:24.542Z,6.87
2019-05-23T23:34:32.230Z,8.89
2019-05-23T23:39:39.857Z,8.00
2019-05-23T23:44:47.514Z,7.72
2019-05-23T23:49:55.102Z,7.28
2019-05-23T23:55:02.718Z,8.03
